createdAt,value
2018-06-13T00:00:40.992Z,4.90
2018-06-13T00:03:10.607Z,3.17
2018-06-13T00:05:40.421Z,3.87
2018-06-13T00:08:10.135Z,3.30
2018-06-13T00:10:39.934Z,2.37
2018-06-13T00:13:09.783Z,3.13
2018-06-13T00:15:39.546Z,4.67
2018-06-13T00:18:09.970Z,3.40
2018-06-13T00:20:41.736Z,3.37
2018-06-13T00:23:10.704Z,3.20
2018-06-13T00:25:39.747Z,2.77
2018-06-13T00:28:08.882Z,5.10
2018-06-13T00:30:37.754Z,2.87
2018-06-13T00:33:06.530Z,3.23
2018-06-13T00:35:36.008Z,3.13
2018-06-13T00:38:05.942Z,3.60
2018-06-13T00:40:35.531Z,3.00
2018-06-13T00:43:04.316Z,2.77
2018-06-13T00:45:33.893Z,3.13
2018-06-13T00:48:02.687Z,3.37
2018-06-13T00:50:32.263Z,2.77
2018-06-13T00:53:01.008Z,3.27
2018-06-13T00:55:29.756Z,5.33
2018-06-13T00:57:59.406Z,4.80
2018-06-13T01:00:29.030Z,3.10
2018-06-13T01:02:57.897Z,3.97
2018-06-13T01:05:26.840Z,2.27
2018-06-13T01:07:56.671Z,4.03
2018-06-13T01:10:25.480Z,3.20
2018-06-13T01:12:54.825Z,4.40
2018-06-13T01:15:24.735Z,4.07
2018-06-13T01:17:54.705Z,3.53
2018-06-13T01:20:23.487Z,4.77
2018-06-13T01:22:52.454Z,3.63
2018-06-13T01:25:22.080Z,3.37
2018-06-13T01:27:51.434Z,3.83
2018-06-13T01:30:20.255Z,3.73
2018-06-13T01:32:49.210Z,3.50
2018-06-13T01:35:18.733Z,3.70
2018-06-13T01:37:47.543Z,5.33
2018-06-13T01:40:17.181Z,2.93
2018-06-13T01:42:45.954Z,3.47
2018-06-13T01:45:15.337Z,2.53
2018-06-13T01:47:45.030Z,5.93
2018-06-13T01:50:13.791Z,4.20
2018-06-13T01:52:43.384Z,3.80
2018-06-13T01:55:12.135Z,4.60
2018-06-13T01:57:42.500Z,3.67
2018-06-13T02:00:12.012Z,3.07
2018-06-13T02:02:41.258Z,3.23
2018-06-13T02:05:10.303Z,3.43
2018-06-13T02:07:40.348Z,3.10
2018-06-13T02:10:09.318Z,4.50
2018-06-13T02:12:38.352Z,3.37
2018-06-13T02:15:08.430Z,2.90
2018-06-13T02:17:38.284Z,3.50
2018-06-13T02:20:07.112Z,2.70
2018-06-13T02:22:36.583Z,3.57
2018-06-13T02:25:05.823Z,3.03
2018-06-13T02:27:34.820Z,3.97
2018-06-13T02:30:04.512Z,4.07
2018-06-13T02:32:33.410Z,5.07
2018-06-13T02:35:02.950Z,3.90
2018-06-13T02:37:31.699Z,2.40
2018-06-13T02:40:00.483Z,3.30
2018-06-13T02:42:29.778Z,2.53
2018-06-13T02:44:59.727Z,4.50
2018-06-13T02:47:29.435Z,3.43
2018-06-13T02:49:58.245Z,3.40
2018-06-13T02:52:27.814Z,3.27
2018-06-13T02:54:56.700Z,3.40
2018-06-13T02:57:25.671Z,4.13
2018-06-13T02:59:55.402Z,3.20
2018-06-13T03:02:25.199Z,3.03
2018-06-13T03:04:54.103Z,2.43
2018-06-13T03:07:23.795Z,2.30
2018-06-13T03:09:52.604Z,2.33
2018-06-13T03:12:21.391Z,2.70
2018-06-13T03:14:57.091Z,2.77
2018-06-13T03:17:26.861Z,2.50
2018-06-13T03:19:55.704Z,2.50
2018-06-13T03:22:24.592Z,2.30
2018-06-13T03:24:54.396Z,2.20
2018-06-13T03:27:23.163Z,2.20
2018-06-13T03:29:52.634Z,3.10
2018-06-13T03:32:21.406Z,2.20
2018-06-13T03:34:50.976Z,2.60
2018-06-13T03:37:19.720Z,2.47
2018-06-13T03:39:48.527Z,2.30
2018-06-13T03:42:18.139Z,2.27
2018-06-13T03:44:47.664Z,2.20
2018-06-13T03:47:16.423Z,2.53
2018-06-13T03:49:45.186Z,2.67
2018-06-13T03:52:14.588Z,3.50
2018-06-13T03:54:43.326Z,2.70
2018-06-13T03:57:12.088Z,2.60
2018-06-13T03:59:41.015Z,2.33
2018-06-13T04:02:10.887Z,5.27
2018-06-13T04:04:41.026Z,4.07
2018-06-13T04:07:10.691Z,2.60
2018-06-13T04:09:39.574Z,2.67
2018-06-13T04:12:08.556Z,2.30
2018-06-13T04:14:37.337Z,2.47
2018-06-13T04:17:07.019Z,2.40
2018-06-13T04:19:35.800Z,2.70
2018-06-13T04:22:04.571Z,2.60
2018-06-13T04:24:33.967Z,2.80
2018-06-13T04:27:02.691Z,2.57
2018-06-13T04:29:32.287Z,2.93
2018-06-13T04:32:01.060Z,2.90
2018-06-13T04:34:29.818Z,3.10
2018-06-13T04:36:59.345Z,2.90
2018-06-13T04:39:28.106Z,3.73
2018-06-13T04:41:57.254Z,3.63
2018-06-13T04:44:27.112Z,3.77
2018-06-13T04:46:55.858Z,4.37
2018-06-13T04:49:24.598Z,5.00
2018-06-13T04:51:54.263Z,4.60
2018-06-13T04:54:23.054Z,4.33
2018-06-13T04:56:51.819Z,4.77
2018-06-13T04:59:20.588Z,4.33
2018-06-13T05:01:49.339Z,4.80
2018-06-13T05:04:18.179Z,4.20
2018-06-13T05:06:47.919Z,5.17
2018-06-13T05:09:16.654Z,4.20
2018-06-13T05:11:45.406Z,4.73
2018-06-13T05:14:14.169Z,5.13
2018-06-13T05:16:43.605Z,4.97
2018-06-13T05:19:12.334Z,3.80
2018-06-13T05:21:41.210Z,5.60
2018-06-13T05:24:10.786Z,4.80
2018-06-13T05:26:39.645Z,4.57
2018-06-13T05:29:09.231Z,4.53
2018-06-13T05:31:38.108Z,5.30
2018-06-13T05:34:06.995Z,4.20
2018-06-13T05:36:36.533Z,3.93
2018-06-13T05:39:08.614Z,5.20
2018-06-13T05:41:37.975Z,4.63
2018-06-13T05:44:07.144Z,4.30
2018-06-13T05:46:36.653Z,4.47
2018-06-13T05:49:05.425Z,4.23
2018-06-13T05:51:35.438Z,5.50
2018-06-13T05:54:04.174Z,3.73
2018-06-13T05:56:32.988Z,4.77
2018-06-13T05:59:01.738Z,4.17
2018-06-13T06:01:31.250Z,4.43
2018-06-13T06:04:00.802Z,4.10
2018-06-13T06:06:30.700Z,5.73
2018-06-13T06:08:59.800Z,4.07
2018-06-13T06:11:28.550Z,4.10
2018-06-13T06:13:57.335Z,4.03
2018-06-13T06:16:26.847Z,4.40
2018-06-13T06:18:55.652Z,4.60
2018-06-13T06:21:24.551Z,4.17
2018-06-13T06:23:54.540Z,4.60
2018-06-13T06:26:23.416Z,3.87
2018-06-13T06:28:52.838Z,5.40
2018-06-13T06:31:21.626Z,4.37
2018-06-13T06:33:50.346Z,3.93
2018-06-13T06:36:19.858Z,4.20
2018-06-13T06:38:48.666Z,6.03
2018-06-13T06:41:18.449Z,4.53
2018-06-13T06:43:47.232Z,4.90
2018-06-13T06:46:16.606Z,7.07
2018-06-13T06:48:45.366Z,5.00
2018-06-13T06:51:15.138Z,4.00
2018-06-13T06:53:43.948Z,4.43
2018-06-13T06:56:12.760Z,5.67
2018-06-13T06:58:41.626Z,4.90
2018-06-13T07:01:10.558Z,3.90
2018-06-13T07:03:39.687Z,6.13
2018-06-13T07:06:08.450Z,4.33
2018-06-13T07:08:38.237Z,4.43
2018-06-13T07:11:07.134Z,4.30
2018-06-13T07:13:36.135Z,4.00
2018-06-13T07:16:05.732Z,4.17
2018-06-13T07:18:34.539Z,3.97
2018-06-13T07:21:03.308Z,4.13
2018-06-13T07:23:32.927Z,3.93
2018-06-13T07:26:01.648Z,3.77
2018-06-13T07:28:31.146Z,4.77
2018-06-13T07:30:59.894Z,4.27
2018-06-13T07:33:29.901Z,3.77
2018-06-13T07:35:59.355Z,4.20
2018-06-13T07:38:28.182Z,4.13
2018-06-13T07:40:57.777Z,4.53
2018-06-13T07:43:26.715Z,4.57
2018-06-13T07:45:56.358Z,3.97
2018-06-13T07:48:25.566Z,4.77
2018-06-13T07:50:55.072Z,4.37
2018-06-13T07:53:23.922Z,5.37
2018-06-13T07:55:52.675Z,5.30
2018-06-13T07:58:21.571Z,4.67
2018-06-13T08:00:50.285Z,4.67
2018-06-13T08:03:19.176Z,4.60
2018-06-13T08:05:47.998Z,4.60
2018-06-13T08:08:17.651Z,4.43
2018-06-13T08:10:46.390Z,4.43
2018-06-13T08:13:15.181Z,3.93
2018-06-13T08:15:44.754Z,3.53
2018-06-13T08:18:14.491Z,4.33
2018-06-13T08:20:43.311Z,3.83
2018-06-13T08:23:12.857Z,4.33
2018-06-13T08:25:41.788Z,3.87
2018-06-13T08:28:11.719Z,5.07
2018-06-13T08:30:40.722Z,6.03
2018-06-13T08:33:10.322Z,3.87
2018-06-13T08:35:40.334Z,4.13
2018-06-13T08:38:09.327Z,4.13
2018-06-13T08:40:39.026Z,3.90
2018-06-13T08:43:07.946Z,5.73
2018-06-13T08:45:37.563Z,2.80
2018-06-13T08:48:06.374Z,3.10
2018-06-13T08:50:36.237Z,2.70
2018-06-13T08:53:05.026Z,3.00
2018-06-13T08:55:33.820Z,3.23
2018-06-13T08:58:02.692Z,3.50
2018-06-13T09:00:31.442Z,3.47
2018-06-13T09:03:00.371Z,3.53
2018-06-13T09:05:29.202Z,4.17
2018-06-13T09:07:59.116Z,3.53
2018-06-13T09:10:27.956Z,2.90
2018-06-13T09:12:56.934Z,3.00
2018-06-13T09:15:27.400Z,2.70
2018-06-13T09:17:57.242Z,2.70
2018-06-13T09:20:26.255Z,2.77
2018-06-13T09:22:55.148Z,2.97
2018-06-13T09:25:24.808Z,4.23
2018-06-13T09:27:54.669Z,3.20
2018-06-13T09:30:23.841Z,3.77
2018-06-13T09:32:52.658Z,3.40
2018-06-13T09:35:22.446Z,3.00
2018-06-13T09:37:51.235Z,3.17
2018-06-13T09:40:20.668Z,3.03
2018-06-13T09:42:49.454Z,2.53
2018-06-13T09:45:19.698Z,4.53
2018-06-13T09:47:48.470Z,2.83
2018-06-13T09:50:17.239Z,3.33
2018-06-13T09:52:46.606Z,2.97
2018-06-13T09:55:15.402Z,3.23
2018-06-13T09:57:44.199Z,2.97
2018-06-13T10:00:18.024Z,3.00
2018-06-13T10:02:46.879Z,3.27
2018-06-13T10:05:15.688Z,3.33
2018-06-13T10:07:45.159Z,2.90
2018-06-13T10:10:13.906Z,3.17
2018-06-13T10:12:42.671Z,2.93
2018-06-13T10:15:12.453Z,3.20
2018-06-13T10:17:42.458Z,2.73
2018-06-13T10:20:11.307Z,2.90
2018-06-13T10:22:40.223Z,2.93
2018-06-13T10:25:09.828Z,2.77
2018-06-13T10:27:40.526Z,2.90
2018-06-13T10:30:10.167Z,2.77
2018-06-13T10:32:39.119Z,2.80
2018-06-13T10:35:08.995Z,3.00
2018-06-13T10:37:37.823Z,3.30
2018-06-13T10:40:07.623Z,2.80
2018-06-13T10:42:36.358Z,2.60
2018-06-13T10:45:05.952Z,2.10
2018-06-13T10:47:34.713Z,2.70
2018-06-13T10:50:03.559Z,2.47
2018-06-13T10:52:32.971Z,2.30
2018-06-13T10:55:01.784Z,2.33
2018-06-13T10:57:30.549Z,2.60
2018-06-13T10:59:59.350Z,2.60
2018-06-13T11:02:28.105Z,2.27
2018-06-13T11:04:57.102Z,4.17
2018-06-13T11:07:26.531Z,3.50
2018-06-13T11:09:55.294Z,2.17
2018-06-13T11:12:24.024Z,3.07
2018-06-13T11:14:52.803Z,2.47
2018-06-13T11:17:22.095Z,3.00
2018-06-13T11:19:50.844Z,2.30
2018-06-13T11:22:19.638Z,2.60
2018-06-13T11:24:49.187Z,2.50
2018-06-13T11:27:18.071Z,2.60
2018-06-13T11:29:47.528Z,2.50
2018-06-13T11:32:16.280Z,2.47
2018-06-13T11:34:45.673Z,2.27
2018-06-13T11:37:14.430Z,2.53
2018-06-13T11:39:43.204Z,2.53
2018-06-13T11:42:12.796Z,2.43
2018-06-13T11:44:42.538Z,2.40
2018-06-13T11:47:11.527Z,2.70
2018-06-13T11:49:40.441Z,4.63
2018-06-13T11:52:10.190Z,2.57
2018-06-13T11:54:39.084Z,3.00
2018-06-13T11:57:07.844Z,2.87
2018-06-13T11:59:36.663Z,2.50
2018-06-13T12:02:05.489Z,2.47
2018-06-13T12:04:34.370Z,2.60
2018-06-13T12:07:04.124Z,2.73
2018-06-13T12:09:32.850Z,2.30
2018-06-13T12:12:01.583Z,2.40
2018-06-13T12:14:30.439Z,2.10
2018-06-13T12:17:00.101Z,2.90
2018-06-13T12:19:28.903Z,3.23
2018-06-13T12:21:58.584Z,2.43
2018-06-13T12:24:28.730Z,2.80
2018-06-13T12:26:57.569Z,2.20
2018-06-13T12:29:27.155Z,2.87
2018-06-13T12:31:55.961Z,2.43
2018-06-13T12:34:24.716Z,2.70
2018-06-13T12:36:54.320Z,3.53
2018-06-13T12:39:23.083Z,2.20
2018-06-13T12:41:52.862Z,2.73
2018-06-13T12:44:22.537Z,4.90
2018-06-13T12:46:51.304Z,3.30
2018-06-13T12:49:20.041Z,2.10
2018-06-13T12:51:49.616Z,2.73
2018-06-13T12:54:18.367Z,6.67
2018-06-13T12:56:47.135Z,2.83
2018-06-13T12:59:15.902Z,2.63
2018-06-13T13:01:44.803Z,4.17
2018-06-13T13:04:13.696Z,2.37
2018-06-13T13:06:43.154Z,2.30
2018-06-13T13:09:13.635Z,4.20
2018-06-13T13:11:43.048Z,3.03
2018-06-13T13:14:13.286Z,2.83
2018-06-13T13:16:43.275Z,3.77
2018-06-13T13:19:12.985Z,2.70
2018-06-13T13:21:41.853Z,2.63
2018-06-13T13:24:11.491Z,2.97
2018-06-13T13:26:41.157Z,2.00
2018-06-13T13:29:10.782Z,3.03
2018-06-13T13:31:39.621Z,5.27
2018-06-13T13:34:08.638Z,3.23
2018-06-13T13:36:38.143Z,2.20
2018-06-13T13:39:08.853Z,2.77
2018-06-13T13:41:39.330Z,4.10
2018-06-13T13:44:08.150Z,2.70
2018-06-13T13:46:38.062Z,4.27
2018-06-13T13:49:06.830Z,4.47
2018-06-13T13:51:36.535Z,3.30
2018-06-13T13:54:05.420Z,2.73
2018-06-13T13:56:34.123Z,3.23
2018-06-13T13:59:04.236Z,3.30
2018-06-13T14:01:33.003Z,4.20
2018-06-13T14:04:01.832Z,2.70
2018-06-13T14:06:31.547Z,2.53
2018-06-13T14:09:00.819Z,3.73
2018-06-13T14:11:29.568Z,2.87
2018-06-13T14:13:59.150Z,2.93
2018-06-13T14:16:28.538Z,4.37
2018-06-13T14:18:58.083Z,4.93
2018-06-13T14:21:27.018Z,3.73
2018-06-13T14:23:56.568Z,3.53
2018-06-13T14:26:25.423Z,4.30
2018-06-13T14:28:54.943Z,3.93
2018-06-13T14:31:23.803Z,3.67
2018-06-13T14:33:52.807Z,3.53
2018-06-13T14:36:22.522Z,4.37
2018-06-13T14:38:51.282Z,3.13
2018-06-13T14:41:20.094Z,4.17
2018-06-13T14:43:49.034Z,3.47
2018-06-13T14:46:18.397Z,5.23
2018-06-13T14:48:47.159Z,3.90
2018-06-13T14:51:16.700Z,3.53
2018-06-13T14:53:45.551Z,3.57
2018-06-13T14:56:19.695Z,6.20
2018-06-13T14:58:48.514Z,7.67
2018-06-13T15:01:18.192Z,6.60
2018-06-13T15:03:46.978Z,6.47
2018-06-13T15:06:16.376Z,5.63
2018-06-13T15:08:45.746Z,7.80
2018-06-13T15:11:14.530Z,5.70
2018-06-13T15:13:43.300Z,2.33
2018-06-13T15:16:12.680Z,3.20
2018-06-13T15:18:41.511Z,2.80
2018-06-13T15:21:10.952Z,2.50
2018-06-13T15:23:40.690Z,2.17
2018-06-13T15:26:10.298Z,2.77
2018-06-13T15:28:39.752Z,3.17
2018-06-13T15:31:08.864Z,4.00
2018-06-13T15:33:37.671Z,3.60
2018-06-13T15:36:07.298Z,3.50
2018-06-13T15:38:36.153Z,4.10
2018-06-13T15:41:05.600Z,4.63
2018-06-13T15:43:34.535Z,5.37
2018-06-13T15:46:04.031Z,5.63
2018-06-13T15:48:32.868Z,4.23
2018-06-13T15:51:02.212Z,3.73
2018-06-13T15:53:31.263Z,4.13
2018-06-13T15:56:00.126Z,3.60
2018-06-13T15:58:29.078Z,2.87
2018-06-13T16:00:58.729Z,2.67
2018-06-13T16:03:27.918Z,3.20
2018-06-13T16:05:57.521Z,2.43
2018-06-13T16:08:27.495Z,4.73
2018-06-13T16:10:56.593Z,5.00
2018-06-13T16:13:26.174Z,3.60
2018-06-13T16:15:55.498Z,3.27
2018-06-13T16:18:24.242Z,2.97
2018-06-13T16:20:53.067Z,2.60
2018-06-13T16:23:22.445Z,2.70
2018-06-13T16:25:51.296Z,2.60
2018-06-13T16:28:21.251Z,3.53
2018-06-13T16:30:50.087Z,2.53
2018-06-13T16:33:18.879Z,2.50
2018-06-13T16:35:48.338Z,2.63
2018-06-13T16:38:17.111Z,4.20
2018-06-13T16:40:45.979Z,2.70
2018-06-13T16:43:14.778Z,2.87
2018-06-13T16:45:44.343Z,2.80
2018-06-13T16:48:13.091Z,2.60
2018-06-13T16:50:53.514Z,3.23
2018-06-13T16:53:50.835Z,3.03
2018-06-13T16:56:19.729Z,3.20
2018-06-13T16:58:48.929Z,2.77
2018-06-13T17:01:18.427Z,3.03
2018-06-13T17:03:47.173Z,2.87
2018-06-13T17:06:16.747Z,3.17
2018-06-13T17:08:46.598Z,3.63
2018-06-13T17:11:16.026Z,3.80
2018-06-13T17:13:44.884Z,4.23
2018-06-13T17:16:14.210Z,5.83
2018-06-13T17:18:43.551Z,3.73
2018-06-13T17:21:12.353Z,3.43
2018-06-13T17:23:42.291Z,5.73
2018-06-13T17:26:11.491Z,3.60
2018-06-13T17:28:41.654Z,4.30
2018-06-13T17:31:11.039Z,3.80
2018-06-13T17:33:40.219Z,4.53
2018-06-13T17:36:10.058Z,3.83
2018-06-13T17:38:39.259Z,4.40
2018-06-13T17:41:08.007Z,4.63
2018-06-13T17:43:36.822Z,4.47
2018-06-13T17:46:06.643Z,4.07
2018-06-13T17:48:35.474Z,4.43
2018-06-13T17:51:04.833Z,4.03
2018-06-13T17:53:33.566Z,4.80
2018-06-13T17:56:02.354Z,4.50
2018-06-13T17:58:31.206Z,4.57
2018-06-13T18:01:00.882Z,4.40
2018-06-13T18:03:29.681Z,4.53
2018-06-13T18:05:58.966Z,4.83
2018-06-13T18:08:29.510Z,4.73
2018-06-13T18:10:58.451Z,4.50
2018-06-13T18:13:27.411Z,5.40
2018-06-13T18:15:57.617Z,4.20
2018-06-13T18:18:27.016Z,5.57
2018-06-13T18:20:56.604Z,4.90
2018-06-13T18:23:27.308Z,5.20
2018-06-13T18:25:56.263Z,4.83
2018-06-13T18:28:26.627Z,6.10
2018-06-13T18:30:55.427Z,5.23
2018-06-13T18:33:24.577Z,5.83
2018-06-13T18:35:53.951Z,6.10
2018-06-13T18:38:22.865Z,5.83
2018-06-13T18:40:51.674Z,5.27
2018-06-13T18:43:20.504Z,6.77
2018-06-13T18:45:50.072Z,5.80
2018-06-13T18:48:18.874Z,4.63
2018-06-13T18:50:48.563Z,4.97
2018-06-13T18:53:17.427Z,5.40
2018-06-13T18:55:46.554Z,5.37
2018-06-13T18:58:15.336Z,5.30
2018-06-13T19:00:45.000Z,5.40
2018-06-13T19:03:13.786Z,6.13
2018-06-13T19:05:43.298Z,5.33
2018-06-13T19:08:12.746Z,5.27
2018-06-13T19:10:41.798Z,5.37
2018-06-13T19:13:11.587Z,5.60
2018-06-13T19:15:41.611Z,5.27
2018-06-13T19:18:10.712Z,5.57
2018-06-13T19:20:39.681Z,6.83
2018-06-13T19:23:09.845Z,5.73
2018-06-13T19:25:39.207Z,5.63
2018-06-13T19:28:09.567Z,5.60
2018-06-13T19:30:39.310Z,4.37
2018-06-13T19:33:08.093Z,5.30
2018-06-13T19:35:38.162Z,4.23
2018-06-13T19:38:06.942Z,5.20
2018-06-13T19:40:35.718Z,5.87
2018-06-13T19:43:07.855Z,5.60
2018-06-13T19:45:37.727Z,4.27
2018-06-13T19:48:11.589Z,5.20
2018-06-13T19:50:41.554Z,6.10
2018-06-13T19:53:15.854Z,5.70
2018-06-13T19:55:49.722Z,4.67
2018-06-13T19:58:18.490Z,6.17
2018-06-13T20:00:48.888Z,4.77
2018-06-13T20:03:23.430Z,4.40
2018-06-13T20:05:53.171Z,4.03
2018-06-13T20:08:22.671Z,5.33
2018-06-13T20:10:51.498Z,5.43
2018-06-13T20:13:25.409Z,5.43
2018-06-13T20:16:00.664Z,4.70
2018-06-13T20:18:34.594Z,4.70
2018-06-13T20:21:03.587Z,4.50
2018-06-13T20:23:33.221Z,3.63
2018-06-13T20:26:06.991Z,4.40
2018-06-13T20:28:41.549Z,4.30
2018-06-13T20:31:23.994Z,5.10
2018-06-13T20:33:52.847Z,4.83
2018-06-13T20:36:21.740Z,5.40
2018-06-13T20:38:50.681Z,4.70
2018-06-13T20:41:19.632Z,5.13
2018-06-13T20:43:48.431Z,4.53
2018-06-13T20:46:18.082Z,5.00
2018-06-13T20:48:46.867Z,6.97
2018-06-13T20:51:16.490Z,6.63
2018-06-13T20:53:45.396Z,4.47
2018-06-13T20:56:14.243Z,5.63
2018-06-13T20:58:43.059Z,4.70
2018-06-13T21:01:12.903Z,5.90
2018-06-13T21:03:42.043Z,4.80
2018-06-13T21:06:12.595Z,6.40
2018-06-13T21:08:42.439Z,4.87
2018-06-13T21:11:11.676Z,8.30
2018-06-13T21:13:40.964Z,5.77
2018-06-13T21:16:11.546Z,7.30
2018-06-13T21:18:40.617Z,6.30
2018-06-13T21:21:09.577Z,6.50
2018-06-13T21:23:40.227Z,8.13
2018-06-13T21:26:09.138Z,6.63
2018-06-13T21:28:39.709Z,6.80
2018-06-13T21:31:09.401Z,6.20
2018-06-13T21:33:38.178Z,7.17
2018-06-13T21:36:07.274Z,6.67
2018-06-13T21:38:36.092Z,7.73
2018-06-13T21:41:04.882Z,6.87
2018-06-13T21:43:33.802Z,7.83
2018-06-13T21:46:03.820Z,7.53
2018-06-13T21:48:32.678Z,7.33
2018-06-13T21:51:02.287Z,7.40
2018-06-13T21:53:31.152Z,7.77
2018-06-13T21:56:01.054Z,7.93
2018-06-13T21:58:30.996Z,9.17
2018-06-13T22:01:00.415Z,8.20
2018-06-13T22:03:29.336Z,8.57
2018-06-13T22:05:59.018Z,8.60
2018-06-13T22:08:29.567Z,9.20
2018-06-13T22:10:58.560Z,8.80
2018-06-13T22:13:27.528Z,8.90
2018-06-13T22:15:57.134Z,9.07
2018-06-13T22:18:26.007Z,8.30
2018-06-13T22:20:54.816Z,9.17
2018-06-13T22:23:24.984Z,9.80
2018-06-13T22:25:53.754Z,8.83
2018-06-13T22:28:23.712Z,10.03
2018-06-13T22:30:52.506Z,9.50
2018-06-13T22:33:21.510Z,9.77
2018-06-13T22:35:50.310Z,8.97
2018-06-13T22:38:19.102Z,10.67
2018-06-13T22:40:47.994Z,10.00
2018-06-13T22:43:17.064Z,9.90
2018-06-13T22:45:46.639Z,10.37
2018-06-13T22:48:16.928Z,10.37
2018-06-13T22:50:46.482Z,10.17
2018-06-13T22:53:15.320Z,10.97
2018-06-13T22:55:44.965Z,11.17
2018-06-13T22:58:13.711Z,10.27
2018-06-13T23:01:02.920Z,10.47
2018-06-13T23:03:32.347Z,11.70
2018-06-13T23:06:05.624Z,11.17
2018-06-13T23:08:35.881Z,11.33
2018-06-13T23:11:04.862Z,12.37
2018-06-13T23:13:33.723Z,11.03
2018-06-13T23:16:03.029Z,11.97
2018-06-13T23:18:32.003Z,11.47
2018-06-13T23:21:00.745Z,14.57
2018-06-13T23:23:30.356Z,12.57
2018-06-13T23:25:59.181Z,13.97
2018-06-13T23:28:28.918Z,11.53
2018-06-13T23:30:58.369Z,12.70
2018-06-13T23:33:27.143Z,14.77
2018-06-13T23:35:55.965Z,13.17
2018-06-13T23:38:24.741Z,12.50
2018-06-13T23:40:54.063Z,14.97
2018-06-13T23:43:22.871Z,12.47
2018-06-13T23:45:52.860Z,13.07
2018-06-13T23:48:21.632Z,15.00
2018-06-13T23:50:51.426Z,15.37
2018-06-13T23:53:21.313Z,12.93
2018-06-13T23:55:50.259Z,13.30
2018-06-13T23:58:19.048Z,13.73
